Latest Weather Observations for Cape Sorell

IDT60801

Issued at 8:03 pm EDT Friday 30 January 2015 (issued every 30 minutes, with the page automatically refreshed every 10 minutes)

About weather observations | Map of weather stations | Latest weather observations for TAS | Other Formats
Station Details ID: 097000 Name: CAPE SORELL Lat: -42.20 Lon: 145.17 Height: 19.3 m
Data from the previous 72 hours. | See also: Recent months at Cape Sorell
Date/Time
EDT
Temp
°C
App
Temp
°C
Dew
Point
Rel
Hum
%
Delta-T
°C
Wind Press
QNH
hPa
Press
MSL
hPa
Rain
since 9 am
mm
Dir
 
Spd
km/h
Gust
km/h
Spd
kts
Gust
kts
30/08:00pm 14.5 5.8 12.5 88 1.1 S 50 65 27 35 1013.6 1013.6 0.0
30/07:30pm 15.0 6.6 12.3 84 1.5 S 48 61 26 33 1013.6 1013.6 0.0
30/07:00pm 15.3 6.4 11.9 80 1.8 S 50 61 27 33 1013.6 1013.6 0.0
30/06:30pm 15.8 6.6 12.2 79 2.0 S 52 65 28 35 1013.6 1013.6 0.0
30/06:00pm 15.8 6.5 11.8 77 2.2 S 52 65 28 35 1013.7 1013.7 0.0
30/05:30pm 16.3 7.8 12.1 76 2.3 S 48 65 26 35 1014.0 1014.0 0.0
30/05:00pm 16.3 7.4 11.9 75 2.4 S 50 63 27 34 1014.1 1014.1 0.0
30/04:30pm 16.3 6.6 11.9 75 2.4 S 54 67 29 36 1014.2 1014.2 0.0
30/04:00pm 16.8 8.8 12.5 76 2.4 S 46 61 25 33 1014.6 1014.6 0.0
30/03:30pm 16.7 7.9 12.3 75 2.4 S 50 67 27 36 1014.8 1014.8 0.0
30/03:00pm 16.7 9.3 12.5 76 2.3 S 43 54 23 29 1015.3 1015.3 0.0
30/02:30pm 16.4 8.3 12.2 76 2.3 S 46 57 25 31 1015.5 1015.5 0.0
30/02:00pm 16.6 9.2 12.6 77 2.2 S 43 54 23 29 1016.0 1015.9 0.0
30/01:30pm 16.3 8.6 12.1 76 2.3 S 44 57 24 31 1016.0 1015.9 0.0
30/01:00pm 16.6 8.9 12.2 75 2.4 S 44 57 24 31 1016.4 1016.3 0.0
30/12:30pm 16.9 10.6 12.4 75 2.5 S 37 52 20 28 1017.0 1016.9 0.0
30/12:00pm 16.5 10.1 11.9 74 2.5 S 37 48 20 26 1017.2 1017.1 0.0
30/11:30am 17.0 11.3 11.7 71 2.9 S 33 46 18 25 1017.7 1017.6 0.0
30/11:00am 17.5 12.8 12.0 70 3.0 S 28 37 15 20 1018.1 1018.0 0.0
30/10:30am 17.6 14.3 10.9 65 3.6 SSE 19 33 10 18 1018.3 1018.2 0.0
30/10:00am 16.8 14.9 11.7 72 2.8 SE 13 22 7 12 1018.8 1018.7 0.0
30/09:30am 14.7 10.9 9.9 73 2.5 S 20 26 11 14 1019.2 1019.1 0.0
30/09:00am 16.2 12.5 10.3 68 3.1 SSE 20 30 11 16 1019.3 1019.2 0.0
30/08:30am 14.6 10.5 10.0 74 2.4 SE 22 32 12 17 1019.4 1019.3 0.0
30/08:00am 13.0 9.1 8.5 74 2.2 SE 19 24 10 13 1019.5 1019.4 0.0
30/07:30am 11.7 7.9 7.4 75 2.1 SSE 17 24 9 13 1019.3 1019.2 0.0
30/07:00am 11.8 7.4 7.5 75 2.1 S 20 30 11 16 1019.3 1019.2 0.0
30/06:30am 11.6 7.1 7.1 74 2.2 S 20 24 11 13 1019.3 1019.2 0.0
30/06:00am 11.1 6.5 6.6 74 2.1 SSE 20 28 11 15 1019.3 1019.2 0.0
30/05:30am 10.9 6.3 6.5 74 2.1 SSE 20 28 11 15 1019.3 1019.2 0.0
30/05:00am 11.2 6.6 6.7 74 2.1 SSE 20 28 11 15 1019.4 1019.3 0.0
30/04:30am 11.6 7.1 6.9 73 2.2 SSE 20 28 11 15 1019.5 1019.4 0.0
30/04:00am 11.6 7.1 7.1 74 2.1 SSE 20 28 11 15 1019.8 1019.7 0.0
30/03:30am 11.6 6.8 7.3 75 2.1 SSE 22 30 12 16 1020.0 1019.9 0.0
30/03:00am 11.7 6.9 7.4 75 2.1 S 22 30 12 16 1020.4 1020.3 0.0
30/02:30am 11.7 6.9 7.2 74 2.2 SSE 22 33 12 18 1020.5 1020.4 0.0
30/02:00am 11.5 6.6 6.8 73 2.2 SSE 22 32 12 17 1020.9 1020.8 0.0
30/01:30am 11.8 7.4 6.7 71 2.4 SSE 19 26 10 14 1021.2 1021.1 0.0
30/01:00am 12.1 8.1 6.8 70 2.5 SSE 17 24 9 13 1021.5 1021.4 0.0
30/12:30am 12.2 6.8 6.3 67 2.8 SSE 24 28 13 15 1021.3 1021.2 0.0
30/12:00am 13.0 8.2 5.4 60 3.5 SE 20 30 11 16 1021.2 1021.1 0.0
 
Date/Time
EDT
Temp
°C
App
Temp
°C
Dew
Point
Rel
Hum
%
Delta-T
°C
Wind Press
QNH
hPa
Press
MSL
hPa
Rain
since 9 am
mm
Dir
 
Spd
km/h
Gust
km/h
Spd
kts
Gust
kts
29/11:30pm 13.6 8.4 5.3 57 3.9 SE 22 32 12 17 1021.2 1021.1 0.0
29/11:00pm 13.8 8.3 5.7 58 3.8 SE 24 33 13 18 1021.3 1021.2 0.0
29/10:30pm 14.3 7.6 5.4 55 4.2 SE 30 41 16 22 1021.3 1021.2 0.0
29/10:00pm 14.4 8.5 5.7 56 4.1 SE 26 43 14 23 1021.4 1021.3 0.0
29/09:30pm 14.2 8.9 7.0 62 3.5 SSE 24 35 13 19 1021.2 1021.1 0.0
29/09:00pm 14.8 9.5 9.8 72 2.6 S 28 37 15 20 1020.8 1020.7 0.0
29/08:30pm 15.2 7.5 10.0 71 2.7 S 41 54 22 29 1020.4 1020.3 0.0
29/08:00pm 15.5 7.3 10.5 72 2.6 S 44 56 24 30 1020.2 1020.1 0.0
29/07:30pm 15.6 7.1 10.8 73 2.6 S 46 61 25 33 1020.0 1019.9 0.0
29/07:00pm 15.7 6.4 10.7 72 2.6 S 50 63 27 34 1019.9 1019.8 0.0
29/06:30pm 16.0 6.7 10.5 70 2.9 S 50 65 27 35 1020.0 1019.9 0.0
29/06:00pm 16.4 7.9 10.5 68 3.1 S 46 63 25 34 1020.2 1020.1 0.0
29/05:30pm 16.6 8.2 10.9 69 3.1 S 46 61 25 33 1020.3 1020.2 0.0
29/05:00pm 16.5 7.7 10.8 69 3.0 S 48 61 26 33 1020.8 1020.7 0.0
29/04:30pm 16.3 6.6 10.4 68 3.1 S 52 63 28 34 1020.9 1020.8 0.0
29/04:00pm 16.5 7.7 10.8 69 3.0 S 48 61 26 33 1021.1 1021.0 0.0
29/03:30pm 16.9 8.9 11.0 68 3.2 S 44 57 24 31 1021.5 1021.4 0.0
29/03:00pm 17.3 9.9 11.1 67 3.3 S 41 52 22 28 1021.8 1021.7 0.0
29/02:30pm 17.1 9.6 10.9 67 3.3 S 41 48 22 26 1022.0 1021.9 0.0
29/02:00pm 17.3 10.4 10.2 63 3.8 S 37 44 20 24 1022.3 1022.2 0.0
29/01:59pm 17.2 10.2 10.1 63 3.8 S 37 44 20 24 1022.3 1022.2 0.0
29/01:30pm 19.6 15.4 5.6 40 6.9 SE 17 26 9 14 1023.0 1022.9 0.0
29/01:00pm 20.1 16.2 7.1 43 6.6 SSE 17 24 9 13 1023.3 1023.2 0.0
29/12:30pm 19.2 14.3 6.7 44 6.3 SE 22 33 12 18 1023.5 1023.4 0.0
29/12:00pm 18.4 13.0 6.3 45 6.0 SE 24 33 13 18 1023.8 1023.7 0.0
29/11:30am 17.9 13.0 6.7 48 5.6 SE 22 32 12 17 1024.1 1024.0 0.0
29/11:00am 17.8 12.9 7.0 49 5.4 SE 22 32 12 17 1024.2 1024.1 0.0
29/10:30am 17.2 12.4 7.3 52 5.0 SE 22 32 12 17 1024.4 1024.4 0.0
29/10:00am 16.2 11.0 7.4 56 4.4 SE 24 33 13 18 1024.5 1024.5 0.0
29/09:30am 15.8 11.3 7.1 56 4.3 SE 20 30 11 16 1024.6 1024.6 0.0
29/09:00am 15.2 11.5 8.0 62 3.6 SE 17 30 9 16 1024.5 1024.5 0.0
29/08:30am 14.1 9.9 7.6 65 3.2 SE 19 28 10 15 1024.5 1024.5 0.0
29/08:00am 13.1 9.0 7.8 70 2.6 SE 19 26 10 14 1024.3 1024.2 0.0
29/07:30am 11.6 7.0 6.7 72 2.3 SE 20 26 11 14 1024.0 1023.9 0.0
29/07:00am 10.7 6.6 6.1 73 2.1 SE 17 22 9 12 1024.0 1023.9 0.0
29/06:30am 10.2 5.4 5.6 73 2.1 SSE 20 28 11 15 1023.8 1023.7 0.0
29/06:00am 10.2 5.9 5.4 72 2.2 SE 17 26 9 14 1023.7 1023.6 0.0
29/05:30am 10.2 5.5 5.2 71 2.3 SE 19 24 10 13 1023.5 1023.4 0.0
29/05:00am 10.3 5.5 4.9 69 2.4 SE 19 24 10 13 1023.3 1023.2 0.0
29/04:30am 10.5 5.8 5.1 69 2.5 SE 19 26 10 14 1023.3 1023.2 0.0
29/04:00am 10.2 6.6 5.0 70 2.3 SE 13 20 7 11 1023.4 1023.3 0.0
29/03:30am 10.9 6.3 5.4 69 2.5 SSE 19 24 10 13 1023.6 1023.5 0.0
29/03:00am 11.3 7.5 6.0 70 2.5 SE 15 24 8 13 1023.6 1023.5 0.0
29/02:30am 11.1 7.3 5.6 69 2.5 SE 15 20 8 11 1023.7 1023.6 0.0
29/02:00am 11.2 7.3 5.5 68 2.6 SSE 15 20 8 11 1023.7 1023.6 0.0
29/01:30am 12.1 8.2 5.5 64 3.1 SE 15 22 8 12 1023.9 1023.8 0.0
29/01:00am 13.0 7.8 5.4 60 3.5 ESE 22 30 12 16 1023.8 1023.7 0.0
29/12:30am 13.3 8.5 5.5 59 3.7 ESE 20 35 11 19 1023.7 1023.6 0.0
29/12:00am 13.4 8.1 5.1 57 3.8 ESE 22 32 12 17 1023.6 1023.5 0.0
 
Date/Time
EDT
Temp
°C
App
Temp
°C
Dew
Point
Rel
Hum
%
Delta-T
°C
Wind Press
QNH
hPa
Press
MSL
hPa
Rain
since 9 am
mm
Dir
 
Spd
km/h
Gust
km/h
Spd
kts
Gust
kts
28/11:30pm 14.2 8.6 5.6 56 4.1 ESE 24 37 13 20 1023.2 1023.1 0.0
28/11:00pm 14.5 8.4 6.8 60 3.7 ESE 28 43 15 23 1022.9 1022.8 0.0
28/10:30pm 14.4 9.5 6.7 60 3.7 SE 22 37 12 20 1022.9 1022.8 0.0
28/10:00pm 14.1 9.9 8.1 67 3.0 SSE 20 30 11 16 1022.8 1022.7 0.0
28/09:30pm 14.7 9.7 9.5 71 2.7 SSE 26 39 14 21 1022.5 1022.4 0.0
28/09:00pm 15.1 9.0 10.5 74 2.4 S 33 43 18 23 1022.2 1022.1 0.0
28/08:30pm 15.5 8.3 10.7 73 2.5 S 39 46 21 25 1021.7 1021.6 0.0
28/08:00pm 15.6 7.7 10.8 73 2.5 S 43 56 23 30 1021.4 1021.3 0.0
28/07:30pm 15.9 7.8 10.9 72 2.7 S 44 57 24 31 1021.3 1021.2 0.0
28/07:00pm 16.0 7.2 11.0 72 2.7 S 48 61 26 33 1021.2 1021.1 0.0
28/06:30pm 15.9 5.8 10.4 70 2.9 S 54 67 29 36 1021.0 1020.9 0.0
28/06:00pm 16.0 6.2 10.1 68 3.1 S 52 67 28 36 1020.9 1020.8 0.0
28/05:30pm 16.0 5.5 10.3 69 3.0 S 56 72 30 39 1021.0 1020.9 0.0
28/05:22pm 15.9 6.1 10.2 69 3.0 S 52 72 28 39 1021.1 1021.0 0.0
28/05:00pm 15.9 5.4 10.2 69 3.0 S 56 69 30 37 1021.2 1021.1 0.0
28/04:30pm 16.2 6.1 10.3 68 3.1 S 54 67 29 36 1021.3 1021.2 0.0
28/04:00pm 16.1 6.3 10.2 68 3.1 S 52 63 28 34 1021.4 1021.3 0.0
28/03:30pm 16.5 6.9 10.8 69 3.0 S 52 67 28 36 1021.7 1021.6 0.0
28/03:00pm 16.5 7.7 11.0 70 2.9 S 48 59 26 32 1021.9 1021.8 0.0
28/02:30pm 16.4 7.5 10.5 68 3.1 S 48 59 26 32 1022.0 1021.9 0.0
28/02:00pm 16.7 8.7 10.5 67 3.3 S 43 54 23 29 1022.2 1022.1 0.0
28/01:30pm 16.5 8.7 9.7 64 3.6 S 41 52 22 28 1022.5 1022.4 0.0
28/01:00pm 17.0 9.9 9.7 62 3.8 S 37 46 20 25 1023.0 1022.9 0.0
28/12:47pm 17.2 11.2 8.6 57 4.4 S 30 44 16 24 1023.0 1022.9 0.0
28/12:30pm 19.1 14.9 8.4 50 5.5 SSE 20 37 11 20 1023.2 1023.1 0.0
28/12:00pm 19.3 15.0 6.8 44 6.3 SE 19 28 10 15 1023.4 1023.3 0.0
28/11:30am 18.4 13.8 6.3 45 6.0 SE 20 32 11 17 1023.4 1023.3 0.0
28/11:00am 17.5 12.1 6.4 48 5.4 SE 24 32 13 17 1023.4 1023.3 0.0
28/10:30am 17.4 13.1 7.7 53 4.9 SE 20 32 11 17 1023.4 1023.3 0.0
28/10:00am 16.2 11.8 8.9 62 3.7 SSE 22 30 12 16 1023.5 1023.4 0.0
28/09:30am 15.4 11.7 9.3 67 3.1 SSE 19 28 10 15 1023.5 1023.4 0.0
28/09:00am 14.3 10.1 8.3 67 3.0 SSE 20 28 11 15 1023.3 1023.2 0.0
28/08:30am 13.4 9.6 9.1 75 2.2 SSE 19 26 10 14 1023.0 1022.9 0.0
28/08:00am 12.2 8.2 9.0 81 1.6 S 20 26 11 14 1022.7 1022.6 0.0
28/07:30am 11.4 8.7 8.8 84 1.3 SSE 13 17 7 9 1022.4 1022.3 0.0
28/07:00am 10.9 6.8 8.7 86 1.1 SSE 20 26 11 14 1022.1 1022.0 0.0
28/06:30am 10.2 6.6 8.3 88 0.9 SSE 17 20 9 11 1021.7 1021.6 0.0
28/06:00am 10.0 7.0 7.9 87 1.0 SSE 13 17 7 9 1021.4 1021.3 0.0
28/05:30am 9.6 6.5 7.2 85 1.1 SSE 13 17 7 9 1021.1 1021.0 0.0
28/05:00am 9.9 6.8 7.2 83 1.3 SSE 13 17 7 9 1021.0 1020.9 0.0
28/04:30am 10.3 6.8 7.4 82 1.4 SSE 15 20 8 11 1020.9 1020.8 0.0
28/04:00am 10.5 6.3 7.6 82 1.4 SSE 19 22 10 12 1020.8 1020.7 0.0
28/03:30am 10.7 6.6 7.8 82 1.4 S 19 24 10 13 1020.9 1020.8 0.0
28/03:00am 10.2 6.7 7.1 81 1.5 SSE 15 19 8 10 1021.2 1021.1 0.0
28/02:30am 10.0 6.7 6.5 79 1.6 SSE 13 17 7 9 1021.3 1021.2 0.0
28/02:00am 10.3 6.7 6.8 79 1.6 SSE 15 19 8 10 1021.5 1021.4 0.0
28/01:30am 10.7 6.4 7.0 78 1.8 SSE 19 22 10 12 1021.5 1021.4 0.0
28/01:00am 11.1 6.7 7.2 77 1.9 SSE 20 30 11 16 1021.2 1021.1 0.0
28/12:30am 11.1 6.7 7.2 77 1.9 SSE 20 28 11 15 1021.3 1021.2 0.0
28/12:00am 11.4 6.2 7.3 76 2.0 SSE 24 37 13 20 1021.3 1021.2 0.0
 
Date/Time
EDT
Temp
°C
App
Temp
°C
Dew
Point
Rel
Hum
%
Delta-T
°C
Wind Press
QNH
hPa
Press
MSL
hPa
Rain
since 9 am
mm
Dir
 
Spd
km/h
Gust
km/h
Spd
kts
Gust
kts
27/11:30pm 11.9 5.7 7.8 76 2.0 SSE 30 39 16 21 1021.1 1021.0 0.0
27/11:00pm 11.9 5.6 7.6 75 2.1 SSE 30 41 16 22 1021.1 1021.0 0.0
27/10:30pm 12.3 5.2 8.0 75 2.1 SSE 35 46 19 25 1021.0 1020.9 0.0
27/10:00pm 12.8 6.2 8.7 76 2.0 S 33 41 18 22 1020.8 1020.7 0.0
27/09:30pm 13.0 6.4 8.7 75 2.2 S 33 44 18 24 1020.5 1020.4 0.0
27/09:00pm 13.6 5.7 9.3 75 2.2 S 41 48 22 26 1020.1 1020.0 0.0
27/08:30pm 14.1 6.3 9.7 75 2.3 S 41 52 22 28 1019.6 1019.5 0.0

Other Formats:

Comma delimited format used in spreadsheet applications
http://www.bom.gov.au/fwo/IDT60801/IDT60801.94974.axf

JavaScript Object Notation format (JSON) in row-major order
http://www.bom.gov.au/fwo/IDT60801/IDT60801.94974.json